createdAt,value
2023-04-27T00:00:11.848Z,1.47
2023-04-27T00:01:14.821Z,1.46
2023-04-27T00:02:17.846Z,1.46
2023-04-27T00:03:19.876Z,1.47
2023-04-27T00:04:23.154Z,1.47
2023-04-27T00:05:25.643Z,1.47
2023-04-27T00:06:28.548Z,1.46
2023-04-27T00:11:28.526Z,1.30
2023-04-27T00:12:30.616Z,1.27
2023-04-27T00:13:33.477Z,1.25
2023-04-27T00:14:35.293Z,1.23
2023-04-27T00:15:38.158Z,1.24
2023-04-27T00:16:40.048Z,1.23
2023-04-27T00:17:43.695Z,1.23
2023-04-27T00:18:46.025Z,1.21
2023-04-27T00:19:48.847Z,1.19
2023-04-27T00:20:50.738Z,1.18
2023-04-27T00:21:53.641Z,1.18
2023-04-27T00:22:55.483Z,1.17
2023-04-27T00:23:58.277Z,1.16
2023-04-27T00:25:00.108Z,1.14
2023-04-27T00:26:03.020Z,1.10
2023-04-27T00:27:06.822Z,1.07
2023-04-27T00:28:09.794Z,1.04
2023-04-27T00:29:11.821Z,1.00
2023-04-27T00:30:15.761Z,0.98
2023-04-27T00:31:17.601Z,0.96
2023-04-27T00:32:20.624Z,0.95
2023-04-27T00:33:24.260Z,0.93
2023-04-27T00:34:27.092Z,0.90
2023-04-27T00:35:29.067Z,0.88
2023-04-27T00:36:31.894Z,0.85
2023-04-27T00:37:33.734Z,0.81
2023-04-27T00:38:39.109Z,0.77
2023-04-27T00:39:41.098Z,0.71
2023-04-27T00:40:43.963Z,0.69
2023-04-27T00:41:45.860Z,0.66
2023-04-27T00:42:50.049Z,0.61
2023-04-27T00:43:51.908Z,0.56
2023-04-27T00:44:54.856Z,0.53
2023-04-27T00:45:57.054Z,0.52
2023-04-27T00:47:00.611Z,0.50
2023-04-27T00:48:02.494Z,0.49
2023-04-27T00:49:05.734Z,0.48
2023-04-27T00:50:10.273Z,0.44
2023-04-27T00:51:13.318Z,0.43
2023-04-27T00:52:15.216Z,0.40
2023-04-27T00:53:19.114Z,0.37
2023-04-27T00:54:21.160Z,0.33
2023-04-27T00:55:24.098Z,0.29
2023-04-27T00:56:26.116Z,0.26
2023-04-27T00:57:28.936Z,0.23
2023-04-27T00:58:32.836Z,0.19
2023-04-27T00:59:35.879Z,0.15
2023-04-27T01:00:37.818Z,0.11
2023-04-27T01:01:40.822Z,0.08
2023-04-27T01:02:42.885Z,0.04
2023-04-27T01:03:45.998Z,-0.01
2023-04-27T01:04:48.500Z,-0.06
2023-04-27T01:05:51.305Z,-0.11
2023-04-27T01:06:53.597Z,-0.15
2023-04-27T01:07:56.440Z,-0.20
2023-04-27T01:08:58.301Z,-0.25
2023-04-27T01:10:04.756Z,-0.27
2023-04-27T01:11:06.633Z,-0.31
2023-04-27T01:12:09.461Z,-0.35
2023-04-27T01:13:11.299Z,-0.38
2023-04-27T01:14:15.429Z,-0.41
2023-04-27T01:15:17.276Z,-0.44
2023-04-27T01:16:20.225Z,-0.49
2023-04-27T01:17:22.129Z,-0.52
2023-04-27T01:18:24.904Z,-0.56
2023-04-27T01:19:26.786Z,-0.60
2023-04-27T01:20:30.380Z,-0.64
2023-04-27T01:21:32.248Z,-0.69
2023-04-27T01:22:35.916Z,-0.71
2023-04-27T01:23:42.024Z,-0.75
2023-04-27T01:24:47.048Z,-0.78
2023-04-27T01:25:48.901Z,-0.81
2023-04-27T01:26:53.218Z,-0.82
2023-04-27T01:27:54.993Z,-0.84
2023-04-27T01:28:57.822Z,-0.87
2023-04-27T01:29:59.632Z,-0.88
2023-04-27T01:31:02.401Z,-0.88
2023-04-27T01:32:04.816Z,-0.90
2023-04-27T01:33:07.674Z,-0.93
2023-04-27T01:34:09.682Z,-0.95
2023-04-27T01:35:12.607Z,-0.99
2023-04-27T01:36:14.406Z,-1.00
2023-04-27T01:37:17.151Z,-1.03
2023-04-27T01:38:19.089Z,-1.06
2023-04-27T01:39:23.231Z,-1.07
2023-04-27T01:40:25.032Z,-1.09
2023-04-27T01:41:29.445Z,-1.10
2023-04-27T01:42:31.205Z,-1.12
2023-04-27T01:43:34.019Z,-1.12
2023-04-27T01:44:36.664Z,-1.11
2023-04-27T01:45:39.434Z,-1.12
2023-04-27T01:46:41.433Z,-1.11
2023-04-27T01:47:44.484Z,-1.10
2023-04-27T01:48:46.641Z,-1.12
2023-04-27T01:49:49.421Z,-1.14
2023-04-27T01:50:54.284Z,-1.14
2023-04-27T01:51:57.065Z,-1.16
2023-04-27T01:52:58.840Z,-1.19
2023-04-27T01:54:01.701Z,-1.20
2023-04-27T01:55:06.315Z,-1.21
2023-04-27T01:56:10.164Z,-1.26
2023-04-27T01:57:12.356Z,-1.28
2023-04-27T01:58:15.217Z,-1.31
2023-04-27T01:59:17.333Z,-1.34
2023-04-27T02:00:20.740Z,-1.36
2023-04-27T02:01:22.786Z,-1.39
2023-04-27T02:02:25.869Z,-1.41
2023-04-27T02:03:28.052Z,-1.44
2023-04-27T02:04:31.110Z,-1.47
2023-04-27T02:05:33.397Z,-1.49
2023-04-27T02:06:36.450Z,-1.51
2023-04-27T02:07:38.247Z,-1.57
2023-04-27T02:08:41.037Z,-1.61
2023-04-27T02:09:43.767Z,-1.64
2023-04-27T02:10:50.900Z,-1.65
2023-04-27T02:11:52.731Z,-1.67
2023-04-27T02:12:55.586Z,-1.67
2023-04-27T02:13:57.408Z,-1.69
2023-04-27T02:15:08.729Z,-1.71
2023-04-27T02:16:10.838Z,-1.72
2023-04-27T02:17:16.127Z,-1.73
2023-04-27T02:18:18.355Z,-1.73
2023-04-27T02:19:21.788Z,-1.72
2023-04-27T02:20:23.602Z,-1.73
2023-04-27T02:21:26.494Z,-1.72
2023-04-27T02:22:28.405Z,-1.71
2023-04-27T02:23:31.364Z,-1.69
2023-04-27T02:24:34.128Z,-1.70
2023-04-27T02:25:36.957Z,-1.69
2023-04-27T02:26:41.131Z,-1.69
2023-04-27T02:27:43.625Z,-1.69
2023-04-27T02:28:47.505Z,-1.69
2023-04-27T02:29:50.003Z,-1.70
2023-04-27T02:30:53.301Z,-1.70
2023-04-27T02:31:55.319Z,-1.69
2023-04-27T02:32:59.208Z,-1.70
2023-04-27T02:34:01.043Z,-1.69
2023-04-27T02:35:04.607Z,-1.69
2023-04-27T02:36:07.351Z,-1.69
2023-04-27T02:37:10.107Z,-1.70
2023-04-27T02:38:13.445Z,-1.71
2023-04-27T02:39:16.498Z,-1.73
2023-04-27T02:40:18.417Z,-1.77
2023-04-27T02:41:21.531Z,-1.78
2023-04-27T02:42:26.509Z,-1.78
2023-04-27T02:43:29.273Z,-1.78
2023-04-27T02:44:31.100Z,-1.80
2023-04-27T02:45:38.013Z,-1.82
2023-04-27T02:46:40.842Z,-1.83
2023-04-27T02:47:43.704Z,-1.84
2023-04-27T02:48:45.548Z,-1.86
2023-04-27T02:49:48.299Z,-1.85
2023-04-27T02:50:50.138Z,-1.86
2023-04-27T02:51:52.920Z,-1.85
2023-04-27T02:52:55.339Z,-1.85
2023-04-27T02:53:58.623Z,-1.82
2023-04-27T02:55:00.464Z,-1.82
2023-04-27T02:56:03.374Z,-1.81
2023-04-27T02:57:05.519Z,-1.81
2023-04-27T02:58:09.741Z,-1.80
2023-04-27T02:59:11.810Z,-1.82
2023-04-27T03:00:15.882Z,-1.86
2023-04-27T03:01:18.055Z,-1.87
2023-04-27T03:02:21.160Z,-1.89
2023-04-27T03:03:23.556Z,-1.89
2023-04-27T03:04:28.194Z,-1.89
2023-04-27T03:05:31.773Z,-1.91
2023-04-27T03:06:34.762Z,-1.92
2023-04-27T03:07:36.595Z,-1.91
2023-04-27T03:08:39.896Z,-1.91
2023-04-27T03:09:41.935Z,-1.90
2023-04-27T03:10:44.828Z,-1.89
2023-04-27T03:11:46.805Z,-1.88
2023-04-27T03:12:49.753Z,-1.89
2023-04-27T03:13:53.082Z,-1.87
2023-04-27T03:14:56.380Z,-1.86
2023-04-27T03:16:00.248Z,-1.86
2023-04-27T03:17:03.250Z,-1.87
2023-04-27T03:18:06.307Z,-1.86
2023-04-27T03:19:10.203Z,-1.87
2023-04-27T03:20:12.805Z,-1.85
2023-04-27T03:21:16.845Z,-1.83
2023-04-27T03:22:18.886Z,-1.83
2023-04-27T03:23:21.744Z,-1.82
2023-04-27T03:24:25.591Z,-1.80
2023-04-27T03:25:28.627Z,-1.79
2023-04-27T03:26:30.484Z,-1.79
2023-04-27T03:27:33.777Z,-1.79
2023-04-27T03:28:36.302Z,-1.81
2023-04-27T03:29:40.557Z,-1.81
2023-04-27T03:30:42.506Z,-1.83
2023-04-27T03:31:45.540Z,-1.84
2023-04-27T03:32:47.805Z,-1.84
2023-04-27T03:33:50.808Z,-1.83
2023-04-27T03:34:53.397Z,-1.83
2023-04-27T03:35:56.809Z,-1.85
2023-04-27T03:36:59.742Z,-1.86
2023-04-27T03:38:01.786Z,-1.87
2023-04-27T03:39:05.463Z,-1.89
2023-04-27T03:40:08.748Z,-1.87
2023-04-27T03:41:11.765Z,-1.88
2023-04-27T03:42:13.710Z,-1.86
2023-04-27T03:43:16.647Z,-1.87
2023-04-27T03:44:18.659Z,-1.85
2023-04-27T03:45:24.618Z,-1.83
2023-04-27T03:46:27.313Z,-1.83
2023-04-27T03:47:31.050Z,-1.83
2023-04-27T03:48:33.098Z,-1.82
2023-04-27T03:49:37.089Z,-1.84
2023-04-27T03:50:39.139Z,-1.86
2023-04-27T03:51:42.478Z,-1.88
2023-04-27T03:52:44.402Z,-1.89
2023-04-27T03:53:47.378Z,-1.87
2023-04-27T03:54:49.325Z,-1.87
2023-04-27T03:55:54.371Z,-1.86
2023-04-27T03:56:56.306Z,-1.86
2023-04-27T03:57:59.707Z,-1.86
2023-04-27T03:59:01.493Z,-1.88
2023-04-27T04:00:11.621Z,-1.89
2023-04-27T04:01:18.738Z,-1.89
2023-04-27T04:02:23.475Z,-1.90
2023-04-27T04:03:25.749Z,-1.87
2023-04-27T04:04:28.972Z,-1.80
2023-04-27T04:05:31.634Z,-1.71
2023-04-27T04:06:34.406Z,-1.58
2023-04-27T04:07:36.403Z,-1.43
2023-04-27T04:08:39.289Z,-1.32
2023-04-27T04:09:41.224Z,-1.18
2023-04-27T04:10:44.155Z,-1.07
2023-04-27T04:11:46.040Z,-0.98
2023-04-27T04:12:51.314Z,-0.86
2023-04-27T04:13:53.283Z,-0.75
2023-04-27T04:14:56.192Z,-0.64
2023-04-27T04:16:02.639Z,-0.54
2023-04-27T04:17:07.104Z,-0.46
2023-04-27T04:18:08.990Z,-0.38
2023-04-27T04:19:11.998Z,-0.30
2023-04-27T04:20:14.128Z,-0.19
2023-04-27T04:21:16.928Z,-0.11
2023-04-27T04:22:18.814Z,-0.03
2023-04-27T04:23:22.120Z,0.02
2023-04-27T04:24:24.251Z,0.08
2023-04-27T04:25:28.211Z,0.15
2023-04-27T04:26:30.826Z,0.26
2023-04-27T04:27:33.928Z,0.37
2023-04-27T04:28:35.924Z,0.43
2023-04-27T04:29:39.035Z,0.48
2023-04-27T04:30:40.942Z,0.52
2023-04-27T04:31:43.848Z,0.53
2023-04-27T04:32:47.204Z,0.59
2023-04-27T04:33:50.531Z,0.72
2023-04-27T04:34:52.422Z,0.84
2023-04-27T04:35:57.337Z,0.97
2023-04-27T04:36:59.276Z,1.08
2023-04-27T04:38:02.092Z,1.19
2023-04-27T04:39:05.401Z,1.30
2023-04-27T04:40:10.305Z,1.42
2023-04-27T04:41:12.950Z,1.52
2023-04-27T04:42:16.004Z,1.60
2023-04-27T04:43:19.611Z,1.68
2023-04-27T04:44:22.797Z,1.76
2023-04-27T04:45:26.068Z,1.85
2023-04-27T04:46:28.587Z,1.92
2023-04-27T04:47:34.071Z,2.00
2023-04-27T04:48:38.828Z,2.12
2023-04-27T04:49:40.845Z,2.23
2023-04-27T04:50:43.951Z,2.30
2023-04-27T04:51:47.734Z,2.36
2023-04-27T04:52:50.612Z,2.45
2023-04-27T04:53:52.498Z,2.55
2023-04-27T04:54:55.432Z,2.62
2023-04-27T04:55:58.330Z,2.66
2023-04-27T04:57:00.994Z,2.71
2023-04-27T04:58:03.900Z,2.72
2023-04-27T04:59:06.501Z,2.73
2023-04-27T05:00:13.640Z,2.71
2023-04-27T05:01:16.036Z,2.75
2023-04-27T05:02:18.924Z,2.80
2023-04-27T05:03:21.540Z,2.84
2023-04-27T05:04:26.729Z,2.87
2023-04-27T05:05:28.794Z,2.91
2023-04-27T05:06:31.767Z,2.95
2023-04-27T05:07:33.773Z,2.95
2023-04-27T05:08:37.237Z,3.00
2023-04-27T05:09:39.219Z,3.07
2023-04-27T05:10:42.153Z,3.16
2023-04-27T05:11:43.979Z,3.23
2023-04-27T05:12:46.800Z,3.36
2023-04-27T05:13:48.764Z,3.51
2023-04-27T05:14:52.310Z,3.66
2023-04-27T05:15:55.262Z,3.79
2023-04-27T05:16:57.288Z,3.92
2023-04-27T05:18:00.240Z,4.04
2023-04-27T05:19:02.496Z,4.17
2023-04-27T05:20:09.032Z,4.31
2023-04-27T05:21:15.350Z,4.42
2023-04-27T05:22:18.289Z,4.48
2023-04-27T05:23:20.224Z,4.55
2023-04-27T05:24:23.125Z,4.65
2023-04-27T05:25:25.062Z,4.82
2023-04-27T05:26:28.025Z,4.96
2023-04-27T05:27:31.068Z,5.12
2023-04-27T05:28:32.947Z,5.29
2023-04-27T05:29:35.907Z,5.48
2023-04-27T05:30:38.054Z,5.71
2023-04-27T05:31:40.930Z,5.93
2023-04-27T05:32:44.007Z,6.20
2023-04-27T05:33:45.853Z,6.44
2023-04-27T05:34:49.587Z,6.63
2023-04-27T05:35:54.196Z,6.75
2023-04-27T05:36:56.070Z,6.87
2023-04-27T05:37:59.765Z,6.98
2023-04-27T05:39:01.963Z,7.09
2023-04-27T05:40:05.911Z,7.23
2023-04-27T05:41:07.985Z,7.38
2023-04-27T05:42:10.918Z,7.45
2023-04-27T05:43:12.791Z,7.49
2023-04-27T05:44:15.746Z,7.58
2023-04-27T05:45:18.009Z,7.71
2023-04-27T05:46:21.895Z,7.87
2023-04-27T05:47:23.867Z,8.01
2023-04-27T05:48:26.772Z,8.12
2023-04-27T05:49:28.715Z,8.22
2023-04-27T05:50:31.675Z,8.30
2023-04-27T05:51:35.922Z,8.44
2023-04-27T05:52:39.082Z,8.54
2023-04-27T05:53:42.179Z,8.59
2023-04-27T05:54:46.849Z,8.69
2023-04-27T05:55:49.689Z,8.82
2023-04-27T05:56:52.546Z,8.96
2023-04-27T05:58:07.123Z,9.02
2023-04-27T05:59:11.046Z,9.09
2023-04-27T06:00:15.157Z,9.18
2023-04-27T06:01:18.144Z,9.26
2023-04-27T06:02:20.245Z,9.35
2023-04-27T06:03:23.245Z,9.40
2023-04-27T06:04:26.527Z,9.43
2023-04-27T06:05:28.832Z,9.52
2023-04-27T06:06:36.039Z,9.56
2023-04-27T06:07:38.267Z,9.60
2023-04-27T06:08:41.297Z,9.62
2023-04-27T06:09:44.317Z,9.68
2023-04-27T06:10:54.315Z,9.59
2023-04-27T06:11:58.543Z,9.49
2023-04-27T06:13:01.440Z,9.40
2023-04-27T06:14:06.987Z,9.28
2023-04-27T06:15:09.915Z,9.13
2023-04-27T06:16:13.477Z,9.04
2023-04-27T06:17:15.625Z,9.02
2023-04-27T06:18:18.610Z,8.97
2023-04-27T06:19:21.755Z,8.91
2023-04-27T06:20:23.770Z,8.89
2023-04-27T06:21:26.973Z,8.95
2023-04-27T06:22:30.270Z,9.06
2023-04-27T06:23:36.251Z,9.12
2023-04-27T06:24:38.265Z,9.18
2023-04-27T06:25:41.141Z,9.23
2023-04-27T06:26:43.108Z,9.25
2023-04-27T06:27:46.026Z,9.24
2023-04-27T06:28:48.821Z,9.23
2023-04-27T06:29:50.766Z,9.22
2023-04-27T06:30:54.531Z,9.21
2023-04-27T06:31:57.487Z,9.17
2023-04-27T06:32:59.942Z,9.12
2023-04-27T06:34:04.725Z,9.10
2023-04-27T06:35:28.530Z,9.02
2023-04-27T06:36:34.715Z,8.98
2023-04-27T06:37:39.173Z,8.91
2023-04-27T06:38:42.200Z,8.90
2023-04-27T06:39:44.761Z,8.94
2023-04-27T06:40:52.007Z,8.98
2023-04-27T06:41:54.019Z,9.02
2023-04-27T06:42:57.298Z,9.09
2023-04-27T06:43:59.591Z,9.13
2023-04-27T06:45:02.846Z,9.23
2023-04-27T06:46:06.265Z,9.37
2023-04-27T06:47:08.232Z,9.52
2023-04-27T06:48:11.181Z,9.72
2023-04-27T06:49:13.147Z,9.94
2023-04-27T06:50:16.926Z,10.21
2023-04-27T06:51:18.853Z,10.59
2023-04-27T06:52:21.999Z,10.92
2023-04-27T06:53:25.127Z,11.24
2023-04-27T06:54:27.940Z,11.45
2023-04-27T06:55:29.833Z,11.60
2023-04-27T06:56:32.697Z,11.81
2023-04-27T06:57:34.762Z,12.09
2023-04-27T06:58:37.717Z,12.28
2023-04-27T06:59:39.596Z,12.48
2023-04-27T07:00:42.485Z,12.66
2023-04-27T07:01:44.438Z,12.94
2023-04-27T07:02:47.444Z,13.23
2023-04-27T07:03:49.609Z,13.45
2023-04-27T07:04:52.768Z,13.59
2023-04-27T07:05:56.610Z,13.54
2023-04-27T07:06:58.559Z,13.52
2023-04-27T07:08:04.597Z,13.48
2023-04-27T07:09:26.155Z,13.53
2023-04-27T07:10:29.804Z,13.65
2023-04-27T07:11:32.943Z,13.79
2023-04-27T07:12:34.873Z,13.92
2023-04-27T07:13:37.766Z,14.01
2023-04-27T07:14:39.645Z,14.10
2023-04-27T07:15:42.425Z,14.18
2023-04-27T07:16:44.365Z,14.17
2023-04-27T07:17:47.246Z,14.23
2023-04-27T07:18:49.222Z,14.29
2023-04-27T07:19:52.129Z,14.45
2023-04-27T07:20:55.347Z,14.61
2023-04-27T07:21:57.286Z,14.61
2023-04-27T07:23:00.132Z,14.46
2023-04-27T07:24:02.148Z,14.40
2023-04-27T07:25:07.476Z,14.36
2023-04-27T07:26:10.008Z,14.44
2023-04-27T07:27:13.456Z,14.44
2023-04-27T07:28:15.382Z,14.28
2023-04-27T07:29:26.923Z,14.13
2023-04-27T07:30:30.774Z,14.00
2023-04-27T07:31:34.210Z,13.87
2023-04-27T07:32:36.661Z,13.71
2023-04-27T07:33:40.209Z,13.55
2023-04-27T07:34:52.743Z,13.47
2023-04-27T07:35:56.987Z,13.37
2023-04-27T07:36:59.094Z,13.21
2023-04-27T07:38:02.702Z,13.08
2023-04-27T07:39:04.878Z,13.00
2023-04-27T07:40:16.633Z,13.00
2023-04-27T07:41:38.831Z,12.91
2023-04-27T07:44:57.667Z,12.00
2023-04-27T07:46:47.314Z,11.58
2023-04-27T07:47:50.761Z,11.42
2023-04-27T07:48:55.268Z,11.23
2023-04-27T07:51:19.524Z,11.10
2023-04-27T07:52:29.526Z,10.80
2023-04-27T07:53:49.177Z,10.63
2023-04-27T07:55:43.923Z,10.47
2023-04-27T07:57:46.652Z,10.37
2023-04-27T07:58:51.358Z,10.29
2023-04-27T08:00:29.358Z,10.30
2023-04-27T08:04:13.890Z,10.10
2023-04-27T08:05:16.714Z,10.16
2023-04-27T08:06:21.034Z,10.47
2023-04-27T08:07:24.788Z,10.91
2023-04-27T08:08:28.174Z,11.30
2023-04-27T08:09:30.659Z,11.62
2023-04-27T08:10:33.674Z,11.83
2023-04-27T08:11:35.717Z,12.05
2023-04-27T08:12:38.695Z,12.22
2023-04-27T08:13:41.588Z,12.22
2023-04-27T08:14:46.370Z,12.14
2023-04-27T08:15:49.523Z,12.01
2023-04-27T08:16:56.276Z,11.92
2023-04-27T08:18:13.946Z,11.80
2023-04-27T08:19:37.324Z,11.60
2023-04-27T08:20:39.860Z,11.35
2023-04-27T08:21:43.511Z,11.20
2023-04-27T08:22:52.228Z,11.05
2023-04-27T08:23:54.171Z,10.93
2023-04-27T08:24:57.048Z,10.80
2023-04-27T08:26:00.544Z,10.69
2023-04-27T08:27:07.074Z,10.63
2023-04-27T08:28:10.738Z,10.53
2023-04-27T08:29:26.387Z,10.42
2023-04-27T08:30:34.294Z,10.26
2023-04-27T08:31:39.325Z,10.11
2023-04-27T08:32:42.592Z,9.98
2023-04-27T08:33:47.102Z,9.87
2023-04-27T08:35:00.766Z,9.81
2023-04-27T08:38:25.001Z,9.72
2023-04-27T08:39:29.418Z,9.81
2023-04-27T08:40:31.837Z,9.92
2023-04-27T08:41:43.749Z,10.08
2023-04-27T08:42:54.797Z,10.27
2023-04-27T08:44:47.039Z,10.47
2023-04-27T08:47:41.128Z,10.88
2023-04-27T08:49:05.322Z,11.05
2023-04-27T08:50:14.704Z,11.12
2023-04-27T08:51:33.635Z,11.11
2023-04-27T08:52:36.164Z,11.02
2023-04-27T08:53:46.932Z,10.92
2023-04-27T08:54:48.968Z,10.87
2023-04-27T08:56:12.663Z,10.78
2023-04-27T08:57:15.843Z,10.70
2023-04-27T08:58:19.242Z,10.62
2023-04-27T08:59:21.418Z,10.53
2023-04-27T09:01:09.862Z,10.37
2023-04-27T09:02:20.069Z,10.21
2023-04-27T09:03:26.742Z,10.12
2023-04-27T09:04:37.740Z,10.04
2023-04-27T09:06:00.586Z,9.92
2023-04-27T09:07:14.282Z,9.80
2023-04-27T09:08:16.385Z,9.71
2023-04-27T09:09:25.879Z,9.63
2023-04-27T09:10:29.798Z,9.58
2023-04-27T09:11:34.851Z,9.61
2023-04-27T09:12:37.345Z,9.67
2023-04-27T09:13:46.759Z,9.72
2023-04-27T09:14:59.582Z,9.78
2023-04-27T09:16:03.738Z,9.82
2023-04-27T09:17:07.199Z,9.83
2023-04-27T09:18:14.948Z,9.87
2023-04-27T09:19:25.010Z,9.94
2023-04-27T09:20:28.684Z,9.93
2023-04-27T09:21:32.595Z,10.02
2023-04-27T09:22:43.650Z,10.15
2023-04-27T09:23:47.316Z,10.21
2023-04-27T09:24:52.810Z,10.32
2023-04-27T09:26:08.945Z,10.42
2023-04-27T09:27:19.973Z,10.68
2023-04-27T09:28:23.420Z,10.92
2023-04-27T09:29:33.127Z,11.23
2023-04-27T09:30:37.728Z,11.57
2023-04-27T09:31:42.305Z,12.02
2023-04-27T09:32:51.454Z,12.52
2023-04-27T09:34:06.730Z,13.11
2023-04-27T09:35:22.909Z,13.92
2023-04-27T09:36:26.744Z,14.34
2023-04-27T09:37:28.948Z,14.75
2023-04-27T09:38:32.688Z,15.17
2023-04-27T09:39:34.823Z,15.55
2023-04-27T09:40:40.203Z,15.61
2023-04-27T09:41:42.234Z,15.39
2023-04-27T09:42:45.248Z,15.15
2023-04-27T09:43:48.357Z,14.88
2023-04-27T09:44:53.402Z,14.50
2023-04-27T09:45:56.931Z,14.13
2023-04-27T09:47:01.197Z,13.76
2023-04-27T09:48:05.717Z,13.55
2023-04-27T09:49:08.774Z,13.27
2023-04-27T09:50:13.395Z,12.98
2023-04-27T09:51:19.336Z,12.69
2023-04-27T09:52:22.410Z,12.40
2023-04-27T09:53:29.354Z,12.16
2023-04-27T09:55:09.105Z,11.76
2023-04-27T09:56:28.535Z,11.56
2023-04-27T09:57:55.757Z,11.29
2023-04-27T09:59:47.736Z,11.22
2023-04-27T10:01:03.536Z,11.20
2023-04-27T10:02:24.110Z,11.21
2023-04-27T10:03:44.768Z,11.27
2023-04-27T10:04:59.653Z,11.30
2023-04-27T10:06:52.103Z,11.36
2023-04-27T10:07:55.710Z,11.34
2023-04-27T10:08:59.257Z,11.40
2023-04-27T10:10:03.925Z,11.44
2023-04-27T10:11:15.387Z,11.51
2023-04-27T10:12:19.935Z,11.66
2023-04-27T10:13:23.091Z,11.80
2023-04-27T10:14:26.396Z,12.01
2023-04-27T10:15:29.971Z,12.32
2023-04-27T10:16:41.416Z,12.66
2023-04-27T10:18:11.561Z,13.06
2023-04-27T10:19:14.383Z,13.34
2023-04-27T10:20:18.093Z,13.45
2023-04-27T10:21:20.318Z,13.53
2023-04-27T10:23:27.458Z,13.75
2023-04-27T10:24:35.924Z,13.80
2023-04-27T10:25:40.839Z,13.81
2023-04-27T10:26:47.011Z,13.70
2023-04-27T10:27:52.879Z,13.57
2023-04-27T10:28:59.527Z,13.38
2023-04-27T10:30:10.630Z,13.13
2023-04-27T10:31:12.755Z,12.93
2023-04-27T10:32:24.949Z,12.77
2023-04-27T10:33:29.451Z,12.69
2023-04-27T10:34:34.853Z,12.66
2023-04-27T10:35:39.990Z,12.65
2023-04-27T10:36:42.372Z,12.70
2023-04-27T10:37:45.513Z,12.64
2023-04-27T10:38:57.364Z,12.55
2023-04-27T10:40:06.370Z,12.47
2023-04-27T10:41:15.632Z,12.53
2023-04-27T10:42:29.361Z,12.63
2023-04-27T10:43:33.367Z,12.66
2023-04-27T10:44:38.103Z,12.68
2023-04-27T10:45:41.070Z,12.78
2023-04-27T10:46:54.138Z,12.92
2023-04-27T10:47:59.706Z,13.01
2023-04-27T10:49:06.660Z,13.07
2023-04-27T10:50:15.404Z,13.24
2023-04-27T10:51:18.793Z,13.43
2023-04-27T10:52:22.293Z,13.65
2023-04-27T10:53:27.004Z,13.96
2023-04-27T10:54:31.497Z,14.30
2023-04-27T10:55:35.804Z,14.57
2023-04-27T10:56:43.752Z,14.74
2023-04-27T10:57:48.596Z,14.69
2023-04-27T10:58:56.301Z,14.64
2023-04-27T10:59:59.633Z,14.62
2023-04-27T11:01:02.958Z,14.70
2023-04-27T11:02:29.393Z,14.93
2023-04-27T11:04:08.354Z,15.24
2023-04-27T11:05:17.885Z,15.40
2023-04-27T11:06:24.303Z,15.50
2023-04-27T11:08:57.849Z,15.55
2023-04-27T11:10:15.265Z,15.56
2023-04-27T11:11:18.770Z,15.65
2023-04-27T11:12:22.012Z,15.75
2023-04-27T11:13:28.387Z,15.82
2023-04-27T11:14:30.908Z,15.96
2023-04-27T11:15:44.080Z,16.07
2023-04-27T11:16:50.725Z,16.05
2023-04-27T11:18:06.164Z,15.90
2023-04-27T11:19:11.038Z,15.69
2023-04-27T11:20:16.557Z,15.40
2023-04-27T11:21:20.597Z,15.11
2023-04-27T11:22:23.880Z,14.83
2023-04-27T11:23:27.204Z,14.54
2023-04-27T11:24:30.324Z,14.29
2023-04-27T11:25:32.378Z,14.06
2023-04-27T11:26:35.587Z,13.88
2023-04-27T11:27:39.613Z,13.73
2023-04-27T11:28:41.815Z,13.51
2023-04-27T11:29:45.257Z,13.30
2023-04-27T11:30:47.786Z,13.07
2023-04-27T11:32:28.857Z,12.86
2023-04-27T11:33:35.838Z,12.64
2023-04-27T11:35:00.697Z,12.59
2023-04-27T11:36:29.210Z,12.51
2023-04-27T11:37:34.660Z,12.45
2023-04-27T11:38:37.566Z,12.44
2023-04-27T11:39:41.526Z,12.39
2023-04-27T11:40:44.574Z,12.30
2023-04-27T11:41:47.404Z,12.24
2023-04-27T11:42:58.132Z,12.17
2023-04-27T11:44:05.994Z,12.12
2023-04-27T11:45:12.694Z,12.03
2023-04-27T11:46:22.287Z,11.91
2023-04-27T11:47:25.496Z,11.73
2023-04-27T11:48:29.482Z,11.57
2023-04-27T11:49:41.425Z,11.44
2023-04-27T11:50:49.234Z,11.30
2023-04-27T11:51:53.194Z,11.24
2023-04-27T11:53:04.164Z,11.19
2023-04-27T11:54:14.635Z,11.19
2023-04-27T11:55:17.840Z,11.18
2023-04-27T11:56:24.381Z,11.13
2023-04-27T11:57:30.087Z,11.03
2023-04-27T11:58:58.444Z,10.95
2023-04-27T12:00:14.575Z,10.96
2023-04-27T12:01:24.813Z,10.99
2023-04-27T12:02:52.976Z,11.01
2023-04-27T12:03:58.679Z,11.00
2023-04-27T12:05:25.065Z,11.06
2023-04-27T12:06:33.119Z,11.14
2023-04-27T12:07:36.544Z,11.23
2023-04-27T12:08:40.664Z,11.34
2023-04-27T12:09:43.900Z,11.44
2023-04-27T12:10:47.333Z,11.62
2023-04-27T12:11:50.788Z,11.87
2023-04-27T12:12:53.256Z,12.17
2023-04-27T12:13:56.974Z,12.59
2023-04-27T12:15:03.340Z,12.86
2023-04-27T12:16:07.430Z,12.96
2023-04-27T12:17:09.816Z,13.12
2023-04-27T12:18:14.159Z,13.34
2023-04-27T12:19:27.551Z,13.65
2023-04-27T12:20:36.910Z,14.13
2023-04-27T12:22:01.103Z,14.51
2023-04-27T12:23:32.587Z,14.80
2023-04-27T12:26:30.666Z,15.02
2023-04-27T12:27:32.663Z,15.07
2023-04-27T12:28:35.934Z,15.18
2023-04-27T12:29:43.155Z,15.17
2023-04-27T12:30:46.266Z,15.10
2023-04-27T12:31:57.516Z,15.08
2023-04-27T12:33:00.909Z,15.12
2023-04-27T12:34:03.069Z,15.00
2023-04-27T12:35:06.898Z,14.84
2023-04-27T12:36:09.164Z,14.61
2023-04-27T12:37:13.857Z,14.46
2023-04-27T12:38:17.063Z,14.29
2023-04-27T12:39:23.015Z,14.09
2023-04-27T12:40:26.841Z,13.89
2023-04-27T12:41:29.282Z,13.73
2023-04-27T12:42:32.344Z,13.66
2023-04-27T12:43:37.576Z,13.61
2023-04-27T12:44:41.555Z,13.55
2023-04-27T12:45:43.737Z,13.54
2023-04-27T12:46:48.415Z,13.53
2023-04-27T12:48:02.722Z,13.56
2023-04-27T12:49:09.995Z,13.59
2023-04-27T12:50:12.802Z,13.57
2023-04-27T12:51:21.292Z,13.58
2023-04-27T12:52:25.443Z,13.56
2023-04-27T12:53:30.237Z,13.54
2023-04-27T12:54:37.754Z,13.73
2023-04-27T12:56:17.352Z,13.90
2023-04-27T12:57:22.437Z,13.93
2023-04-27T12:58:36.415Z,13.89
2023-04-27T13:00:06.295Z,13.80
2023-04-27T13:01:19.620Z,13.72
2023-04-27T13:02:21.875Z,13.74
2023-04-27T13:03:25.235Z,13.72
2023-04-27T13:04:30.233Z,13.75
2023-04-27T13:05:32.495Z,13.83
2023-04-27T13:06:53.644Z,14.00
2023-04-27T13:07:59.310Z,14.07
2023-04-27T13:11:48.889Z,14.01
2023-04-27T13:12:57.198Z,13.97
2023-04-27T13:14:12.742Z,13.92
2023-04-27T13:15:41.446Z,13.84
2023-04-27T13:16:44.815Z,13.80
2023-04-27T13:17:47.128Z,13.85
2023-04-27T13:18:52.370Z,13.82
2023-04-27T13:19:54.969Z,13.85
2023-04-27T13:20:58.587Z,13.80
2023-04-27T13:22:03.844Z,13.74
2023-04-27T13:23:07.555Z,13.64
2023-04-27T13:24:11.200Z,13.49
2023-04-27T13:25:14.055Z,13.34
2023-04-27T13:26:17.447Z,13.20
2023-04-27T13:27:22.508Z,13.05
2023-04-27T13:28:29.190Z,12.97
2023-04-27T13:29:32.620Z,12.82
2023-04-27T13:30:36.279Z,12.76
2023-04-27T13:31:39.662Z,12.73
2023-04-27T13:33:21.183Z,12.65
2023-04-27T13:34:29.246Z,12.46
2023-04-27T13:35:38.625Z,12.43
2023-04-27T13:36:42.336Z,12.43
2023-04-27T13:37:44.862Z,12.43
2023-04-27T13:39:18.785Z,12.43
2023-04-27T13:40:21.245Z,12.39
2023-04-27T13:41:24.435Z,12.38
2023-04-27T13:42:29.473Z,12.37
2023-04-27T13:43:34.947Z,12.37
2023-04-27T13:44:37.180Z,12.41
2023-04-27T13:45:42.763Z,12.45
2023-04-27T13:46:46.338Z,12.54
2023-04-27T13:47:50.325Z,12.59
2023-04-27T13:49:03.062Z,12.69
2023-04-27T13:50:08.129Z,12.84
2023-04-27T13:51:23.028Z,12.95
2023-04-27T13:52:34.128Z,13.01
2023-04-27T13:53:38.132Z,13.05
2023-04-27T13:54:44.833Z,13.13
2023-04-27T13:55:48.261Z,13.31
2023-04-27T13:56:51.408Z,13.68
2023-04-27T13:58:00.325Z,14.09
2023-04-27T13:59:03.825Z,14.42
2023-04-27T14:00:11.529Z,14.82
2023-04-27T14:01:14.808Z,15.26
2023-04-27T14:02:16.872Z,15.38
2023-04-27T14:03:20.110Z,15.41
2023-04-27T14:04:22.221Z,15.45
2023-04-27T14:05:25.181Z,15.52
2023-04-27T14:06:28.341Z,15.54
2023-04-27T14:07:31.661Z,15.51
2023-04-27T14:08:35.595Z,15.47
2023-04-27T14:09:38.191Z,15.44
2023-04-27T14:10:43.116Z,15.46
2023-04-27T14:11:55.646Z,15.35
2023-04-27T14:13:01.130Z,15.18
2023-04-27T14:14:36.209Z,15.01
2023-04-27T14:15:39.278Z,14.80
2023-04-27T14:16:41.727Z,14.70
2023-04-27T14:17:45.314Z,14.64
2023-04-27T14:18:47.480Z,14.61
2023-04-27T14:19:51.100Z,14.51
2023-04-27T14:20:57.608Z,14.40
2023-04-27T14:21:59.680Z,14.31
2023-04-27T14:23:02.657Z,14.25
2023-04-27T14:24:05.125Z,14.18
2023-04-27T14:25:09.373Z,14.02
2023-04-27T14:26:12.625Z,13.88
2023-04-27T14:27:17.018Z,13.77
2023-04-27T14:28:19.886Z,13.67
2023-04-27T14:29:22.386Z,13.60
2023-04-27T14:30:25.875Z,13.47
2023-04-27T14:31:29.583Z,13.37
2023-04-27T14:32:32.723Z,13.22
2023-04-27T14:33:34.675Z,13.12